sensor_id;sensor_type;location;lat;lon;timestamp;P1;durP1;ratioP1;P2;durP2;ratioP2
41799;SDS011;27468;47.460;19.034;2023-04-03T00:00:22;4.82;;;3.17;;
41799;SDS011;27468;47.460;19.034;2023-04-03T00:02:47;4.85;;;3.45;;
41799;SDS011;27468;47.460;19.034;2023-04-03T00:05:13;6.40;;;3.55;;
41799;SDS011;27468;47.460;19.034;2023-04-03T00:07:38;6.05;;;3.45;;
41799;SDS011;27468;47.460;19.034;2023-04-03T00:10:03;5.55;;;3.30;;
41799;SDS011;27468;47.460;19.034;2023-04-03T00:12:29;6.30;;;3.50;;
41799;SDS011;27468;47.460;19.034;2023-04-03T00:14:55;6.22;;;3.75;;
41799;SDS011;27468;47.460;19.034;2023-04-03T00:17:20;4.75;;;3.20;;
41799;SDS011;27468;47.460;19.034;2023-04-03T00:19:45;7.47;;;3.80;;
41799;SDS011;27468;47.460;19.034;2023-04-03T00:22:11;5.50;;;3.50;;
41799;SDS011;27468;47.460;19.034;2023-04-03T00:24:36;5.10;;;3.95;;
41799;SDS011;27468;47.460;19.034;2023-04-03T00:27:02;6.18;;;3.53;;
41799;SDS011;27468;47.460;19.034;2023-04-03T00:29:27;5.32;;;3.35;;
41799;SDS011;27468;47.460;19.034;2023-04-03T00:31:52;6.18;;;3.50;;
41799;SDS011;27468;47.460;19.034;2023-04-03T00:34:18;6.68;;;3.83;;
41799;SDS011;27468;47.460;19.034;2023-04-03T00:36:44;5.80;;;3.53;;
41799;SDS011;27468;47.460;19.034;2023-04-03T00:39:10;5.90;;;3.63;;
41799;SDS011;27468;47.460;19.034;2023-04-03T00:41:35;6.60;;;4.05;;
41799;SDS011;27468;47.460;19.034;2023-04-03T00:44:16;6.65;;;3.85;;
41799;SDS011;27468;47.460;19.034;2023-04-03T00:47:03;5.23;;;3.17;;
41799;SDS011;27468;47.460;19.034;2023-04-03T00:49:32;5.40;;;3.42;;
41799;SDS011;27468;47.460;19.034;2023-04-03T00:51:57;4.40;;;3.00;;
41799;SDS011;27468;47.460;19.034;2023-04-03T00:54:24;5.88;;;3.08;;
41799;SDS011;27468;47.460;19.034;2023-04-03T00:56:51;5.63;;;3.58;;
41799;SDS011;27468;47.460;19.034;2023-04-03T00:59:20;6.18;;;3.25;;
41799;SDS011;27468;47.460;19.034;2023-04-03T01:04:32;6.30;;;4.38;;
41799;SDS011;27468;47.460;19.034;2023-04-03T01:07:00;6.22;;;3.20;;
41799;SDS011;27468;47.460;19.034;2023-04-03T01:09:31;5.32;;;3.15;;
41799;SDS011;27468;47.460;19.034;2023-04-03T01:14:49;4.20;;;2.90;;
41799;SDS011;27468;47.460;19.034;2023-04-03T01:25:19;4.32;;;3.38;;
41799;SDS011;27468;47.460;19.034;2023-04-03T01:27:44;4.30;;;3.03;;
41799;SDS011;27468;47.460;19.034;2023-04-03T01:30:10;5.07;;;3.17;;
41799;SDS011;27468;47.460;19.034;2023-04-03T01:32:37;5.18;;;3.22;;
41799;SDS011;27468;47.460;19.034;2023-04-03T01:35:03;7.15;;;3.72;;
41799;SDS011;27468;47.460;19.034;2023-04-03T01:37:28;5.40;;;3.22;;
41799;SDS011;27468;47.460;19.034;2023-04-03T01:39:54;4.22;;;3.13;;
41799;SDS011;27468;47.460;19.034;2023-04-03T01:42:19;5.57;;;3.58;;
41799;SDS011;27468;47.460;19.034;2023-04-03T01:44:45;5.55;;;3.60;;
41799;SDS011;27468;47.460;19.034;2023-04-03T01:47:11;4.80;;;3.15;;
41799;SDS011;27468;47.460;19.034;2023-04-03T01:49:36;4.07;;;2.78;;
41799;SDS011;27468;47.460;19.034;2023-04-03T01:52:01;5.70;;;3.97;;
41799;SDS011;27468;47.460;19.034;2023-04-03T01:54:27;4.82;;;3.03;;
41799;SDS011;27468;47.460;19.034;2023-04-03T01:56:52;4.70;;;2.95;;
41799;SDS011;27468;47.460;19.034;2023-04-03T01:59:18;4.05;;;2.85;;
41799;SDS011;27468;47.460;19.034;2023-04-03T02:01:44;4.55;;;3.00;;
41799;SDS011;27468;47.460;19.034;2023-04-03T02:04:10;4.68;;;3.20;;
41799;SDS011;27468;47.460;19.034;2023-04-03T02:06:36;4.57;;;2.90;;
41799;SDS011;27468;47.460;19.034;2023-04-03T02:09:02;6.78;;;3.88;;
41799;SDS011;27468;47.460;19.034;2023-04-03T02:11:28;3.83;;;2.70;;
41799;SDS011;27468;47.460;19.034;2023-04-03T02:13:53;3.70;;;2.30;;
41799;SDS011;27468;47.460;19.034;2023-04-03T02:16:18;4.18;;;2.90;;
41799;SDS011;27468;47.460;19.034;2023-04-03T02:18:44;3.95;;;2.70;;
41799;SDS011;27468;47.460;19.034;2023-04-03T02:21:09;3.85;;;2.33;;
41799;SDS011;27468;47.460;19.034;2023-04-03T02:23:35;3.45;;;2.60;;
41799;SDS011;27468;47.460;19.034;2023-04-03T02:26:05;3.58;;;2.33;;
41799;SDS011;27468;47.460;19.034;2023-04-03T02:28:33;5.70;;;3.17;;
41799;SDS011;27468;47.460;19.034;2023-04-03T02:30:59;4.38;;;2.30;;
41799;SDS011;27468;47.460;19.034;2023-04-03T02:33:24;3.63;;;2.17;;
41799;SDS011;27468;47.460;19.034;2023-04-03T02:35:56;3.28;;;2.42;;
41799;SDS011;27468;47.460;19.034;2023-04-03T02:38:22;3.42;;;2.30;;
41799;SDS011;27468;47.460;19.034;2023-04-03T02:40:48;3.28;;;2.30;;
41799;SDS011;27468;47.460;19.034;2023-04-03T02:43:14;4.07;;;2.40;;
41799;SDS011;27468;47.460;19.034;2023-04-03T02:45:39;3.10;;;2.40;;
41799;SDS011;27468;47.460;19.034;2023-04-03T02:48:05;3.55;;;2.55;;
41799;SDS011;27468;47.460;19.034;2023-04-03T02:50:31;3.78;;;2.03;;
41799;SDS011;27468;47.460;19.034;2023-04-03T02:52:57;3.90;;;2.47;;
41799;SDS011;27468;47.460;19.034;2023-04-03T02:55:22;5.43;;;3.05;;
41799;SDS011;27468;47.460;19.034;2023-04-03T02:57:47;2.70;;;2.03;;
41799;SDS011;27468;47.460;19.034;2023-04-03T03:00:13;3.80;;;2.50;;
41799;SDS011;27468;47.460;19.034;2023-04-03T03:02:39;3.55;;;2.50;;
41799;SDS011;27468;47.460;19.034;2023-04-03T03:05:05;4.18;;;2.53;;
41799;SDS011;27468;47.460;19.034;2023-04-03T03:07:31;4.78;;;2.33;;
41799;SDS011;27468;47.460;19.034;2023-04-03T03:09:57;3.72;;;2.40;;
41799;SDS011;27468;47.460;19.034;2023-04-03T03:12:22;3.40;;;2.25;;
41799;SDS011;27468;47.460;19.034;2023-04-03T03:14:49;3.80;;;2.35;;
41799;SDS011;27468;47.460;19.034;2023-04-03T03:17:14;3.60;;;2.13;;
41799;SDS011;27468;47.460;19.034;2023-04-03T03:19:40;3.80;;;2.20;;
41799;SDS011;27468;47.460;19.034;2023-04-03T03:22:05;3.63;;;2.50;;
41799;SDS011;27468;47.460;19.034;2023-04-03T03:24:31;3.35;;;2.40;;
41799;SDS011;27468;47.460;19.034;2023-04-03T03:26:56;4.70;;;2.47;;
41799;SDS011;27468;47.460;19.034;2023-04-03T03:29:22;3.97;;;2.42;;
41799;SDS011;27468;47.460;19.034;2023-04-03T03:31:47;3.72;;;2.20;;
41799;SDS011;27468;47.460;19.034;2023-04-03T03:34:12;3.90;;;2.50;;
41799;SDS011;27468;47.460;19.034;2023-04-03T03:36:38;4.00;;;2.40;;
41799;SDS011;27468;47.460;19.034;2023-04-03T03:39:04;3.25;;;2.15;;
41799;SDS011;27468;47.460;19.034;2023-04-03T03:41:30;3.00;;;2.15;;
41799;SDS011;27468;47.460;19.034;2023-04-03T03:43:56;4.47;;;2.50;;
41799;SDS011;27468;47.460;19.034;2023-04-03T03:46:21;4.93;;;2.67;;
41799;SDS011;27468;47.460;19.034;2023-04-03T03:48:47;3.92;;;2.13;;
41799;SDS011;27468;47.460;19.034;2023-04-03T03:51:12;4.00;;;2.28;;
41799;SDS011;27468;47.460;19.034;2023-04-03T03:53:38;3.65;;;2.28;;
41799;SDS011;27468;47.460;19.034;2023-04-03T03:56:04;4.20;;;2.67;;
41799;SDS011;27468;47.460;19.034;2023-04-03T03:58:30;4.20;;;2.60;;
41799;SDS011;27468;47.460;19.034;2023-04-03T04:00:59;3.63;;;2.15;;
41799;SDS011;27468;47.460;19.034;2023-04-03T04:03:26;5.15;;;2.92;;
41799;SDS011;27468;47.460;19.034;2023-04-03T04:05:51;4.28;;;2.92;;
41799;SDS011;27468;47.460;19.034;2023-04-03T04:08:17;3.65;;;2.30;;
41799;SDS011;27468;47.460;19.034;2023-04-03T04:10:42;3.40;;;2.28;;
41799;SDS011;27468;47.460;19.034;2023-04-03T04:13:07;3.22;;;1.90;;
41799;SDS011;27468;47.460;19.034;2023-04-03T04:15:33;3.40;;;2.13;;
41799;SDS011;27468;47.460;19.034;2023-04-03T04:17:58;4.00;;;2.45;;
41799;SDS011;27468;47.460;19.034;2023-04-03T04:20:24;3.35;;;2.10;;
41799;SDS011;27468;47.460;19.034;2023-04-03T04:22:49;3.88;;;2.50;;
41799;SDS011;27468;47.460;19.034;2023-04-03T04:25:15;4.07;;;2.65;;
41799;SDS011;27468;47.460;19.034;2023-04-03T04:27:40;5.68;;;3.00;;
41799;SDS011;27468;47.460;19.034;2023-04-03T04:30:06;3.17;;;2.25;;
41799;SDS011;27468;47.460;19.034;2023-04-03T04:32:32;4.45;;;2.80;;
41799;SDS011;27468;47.460;19.034;2023-04-03T04:34:57;4.78;;;2.80;;
41799;SDS011;27468;47.460;19.034;2023-04-03T04:37:23;2.80;;;1.77;;
41799;SDS011;27468;47.460;19.034;2023-04-03T04:39:48;5.18;;;2.97;;
41799;SDS011;27468;47.460;19.034;2023-04-03T04:42:14;5.50;;;3.25;;
41799;SDS011;27468;47.460;19.034;2023-04-03T04:44:40;3.97;;;2.60;;
41799;SDS011;27468;47.460;19.034;2023-04-03T04:47:05;3.22;;;2.85;;
41799;SDS011;27468;47.460;19.034;2023-04-03T04:49:30;3.78;;;2.50;;
41799;SDS011;27468;47.460;19.034;2023-04-03T04:51:56;2.38;;;2.10;;
41799;SDS011;27468;47.460;19.034;2023-04-03T04:54:21;3.20;;;2.30;;
41799;SDS011;27468;47.460;19.034;2023-04-03T04:56:47;3.45;;;2.38;;
41799;SDS011;27468;47.460;19.034;2023-04-03T04:59:12;4.47;;;2.78;;
41799;SDS011;27468;47.460;19.034;2023-04-03T05:01:38;4.35;;;2.33;;
41799;SDS011;27468;47.460;19.034;2023-04-03T05:04:03;5.60;;;3.28;;
41799;SDS011;27468;47.460;19.034;2023-04-03T05:06:29;5.45;;;2.80;;
41799;SDS011;27468;47.460;19.034;2023-04-03T05:08:56;4.18;;;2.72;;
41799;SDS011;27468;47.460;19.034;2023-04-03T05:11:22;3.97;;;2.72;;
41799;SDS011;27468;47.460;19.034;2023-04-03T05:13:47;2.80;;;1.80;;
41799;SDS011;27468;47.460;19.034;2023-04-03T05:16:13;4.07;;;2.17;;
41799;SDS011;27468;47.460;19.034;2023-04-03T05:18:38;5.05;;;2.55;;
41799;SDS011;27468;47.460;19.034;2023-04-03T05:21:04;4.22;;;2.70;;
41799;SDS011;27468;47.460;19.034;2023-04-03T05:23:29;3.92;;;2.55;;
41799;SDS011;27468;47.460;19.034;2023-04-03T05:25:55;5.45;;;2.80;;
41799;SDS011;27468;47.460;19.034;2023-04-03T05:28:20;4.07;;;2.47;;
41799;SDS011;27468;47.460;19.034;2023-04-03T05:30:52;3.28;;;2.47;;
41799;SDS011;27468;47.460;19.034;2023-04-03T05:33:21;4.50;;;2.40;;
41799;SDS011;27468;47.460;19.034;2023-04-03T05:35:47;3.97;;;2.03;;
41799;SDS011;27468;47.460;19.034;2023-04-03T05:38:13;4.32;;;2.63;;
41799;SDS011;27468;47.460;19.034;2023-04-03T05:40:38;5.18;;;2.75;;
41799;SDS011;27468;47.460;19.034;2023-04-03T05:43:04;4.57;;;2.45;;
41799;SDS011;27468;47.460;19.034;2023-04-03T05:45:29;3.90;;;2.13;;
41799;SDS011;27468;47.460;19.034;2023-04-03T05:47:55;4.32;;;2.42;;
41799;SDS011;27468;47.460;19.034;2023-04-03T05:50:21;3.05;;;2.10;;
41799;SDS011;27468;47.460;19.034;2023-04-03T05:52:47;3.20;;;2.20;;
41799;SDS011;27468;47.460;19.034;2023-04-03T05:55:14;3.35;;;2.22;;
41799;SDS011;27468;47.460;19.034;2023-04-03T05:57:39;3.78;;;2.58;;
41799;SDS011;27468;47.460;19.034;2023-04-03T06:00:05;3.45;;;2.25;;
41799;SDS011;27468;47.460;19.034;2023-04-03T06:02:32;4.18;;;2.53;;
41799;SDS011;27468;47.460;19.034;2023-04-03T06:04:58;3.22;;;2.50;;
41799;SDS011;27468;47.460;19.034;2023-04-03T06:07:24;5.32;;;2.78;;
41799;SDS011;27468;47.460;19.034;2023-04-03T06:09:53;2.95;;;2.20;;
41799;SDS011;27468;47.460;19.034;2023-04-03T06:12:21;3.95;;;2.40;;
41799;SDS011;27468;47.460;19.034;2023-04-03T06:14:46;3.97;;;2.55;;
41799;SDS011;27468;47.460;19.034;2023-04-03T06:17:12;4.18;;;2.17;;
41799;SDS011;27468;47.460;19.034;2023-04-03T06:19:38;3.85;;;2.30;;
41799;SDS011;27468;47.460;19.034;2023-04-03T06:22:04;4.50;;;2.53;;
41799;SDS011;27468;47.460;19.034;2023-04-03T06:24:29;3.58;;;2.53;;
41799;SDS011;27468;47.460;19.034;2023-04-03T06:26:55;3.42;;;2.22;;
41799;SDS011;27468;47.460;19.034;2023-04-03T06:29:21;3.40;;;2.00;;
41799;SDS011;27468;47.460;19.034;2023-04-03T06:31:47;4.10;;;2.00;;
41799;SDS011;27468;47.460;19.034;2023-04-03T06:34:13;3.40;;;2.08;;
41799;SDS011;27468;47.460;19.034;2023-04-03T06:36:40;2.45;;;1.77;;
41799;SDS011;27468;47.460;19.034;2023-04-03T06:39:07;3.47;;;1.95;;
41799;SDS011;27468;47.460;19.034;2023-04-03T06:41:33;3.03;;;1.98;;
41799;SDS011;27468;47.460;19.034;2023-04-03T06:43:59;2.95;;;1.75;;
41799;SDS011;27468;47.460;19.034;2023-04-03T06:46:25;3.05;;;2.10;;
41799;SDS011;27468;47.460;19.034;2023-04-03T06:48:51;3.78;;;2.08;;
41799;SDS011;27468;47.460;19.034;2023-04-03T06:53:42;2.88;;;1.70;;
41799;SDS011;27468;47.460;19.034;2023-04-03T06:56:08;3.75;;;2.05;;
41799;SDS011;27468;47.460;19.034;2023-04-03T06:58:33;3.28;;;1.83;;
41799;SDS011;27468;47.460;19.034;2023-04-03T07:00:59;3.17;;;1.98;;
41799;SDS011;27468;47.460;19.034;2023-04-03T07:03:25;2.53;;;1.80;;
41799;SDS011;27468;47.460;19.034;2023-04-03T07:05:50;3.55;;;2.00;;
41799;SDS011;27468;47.460;19.034;2023-04-03T07:08:15;2.42;;;1.92;;
41799;SDS011;27468;47.460;19.034;2023-04-03T07:10:41;2.50;;;1.80;;
41799;SDS011;27468;47.460;19.034;2023-04-03T07:13:06;2.53;;;1.70;;
41799;SDS011;27468;47.460;19.034;2023-04-03T07:15:32;2.90;;;1.98;;
41799;SDS011;27468;47.460;19.034;2023-04-03T07:17:58;4.43;;;2.58;;
41799;SDS011;27468;47.460;19.034;2023-04-03T07:20:23;2.22;;;1.60;;
41799;SDS011;27468;47.460;19.034;2023-04-03T07:22:49;2.85;;;1.80;;
41799;SDS011;27468;47.460;19.034;2023-04-03T07:25:15;2.78;;;1.70;;
41799;SDS011;27468;47.460;19.034;2023-04-03T07:27:41;3.05;;;1.73;;
41799;SDS011;27468;47.460;19.034;2023-04-03T07:30:06;2.08;;;1.48;;
41799;SDS011;27468;47.460;19.034;2023-04-03T07:32:32;2.97;;;1.65;;
41799;SDS011;27468;47.460;19.034;2023-04-03T07:34:58;2.35;;;1.42;;
41799;SDS011;27468;47.460;19.034;2023-04-03T07:37:23;2.22;;;1.45;;
41799;SDS011;27468;47.460;19.034;2023-04-03T07:39:49;2.20;;;1.50;;
41799;SDS011;27468;47.460;19.034;2023-04-03T07:42:14;2.47;;;1.40;;
41799;SDS011;27468;47.460;19.034;2023-04-03T07:44:39;2.30;;;1.60;;
41799;SDS011;27468;47.460;19.034;2023-04-03T07:47:05;2.17;;;1.50;;
41799;SDS011;27468;47.460;19.034;2023-04-03T07:49:31;2.25;;;1.63;;
41799;SDS011;27468;47.460;19.034;2023-04-03T07:51:57;2.20;;;1.30;;
41799;SDS011;27468;47.460;19.034;2023-04-03T07:54:23;1.85;;;1.50;;
41799;SDS011;27468;47.460;19.034;2023-04-03T07:56:49;3.10;;;1.35;;
41799;SDS011;27468;47.460;19.034;2023-04-03T07:59:14;1.48;;;1.23;;
41799;SDS011;27468;47.460;19.034;2023-04-03T08:01:40;1.70;;;1.50;;
41799;SDS011;27468;47.460;19.034;2023-04-03T08:04:05;2.50;;;1.42;;
41799;SDS011;27468;47.460;19.034;2023-04-03T08:06:31;2.13;;;1.40;;
41799;SDS011;27468;47.460;19.034;2023-04-03T08:08:59;2.30;;;1.60;;
41799;SDS011;27468;47.460;19.034;2023-04-03T08:11:25;2.00;;;1.45;;
41799;SDS011;27468;47.460;19.034;2023-04-03T08:13:51;2.38;;;1.45;;
41799;SDS011;27468;47.460;19.034;2023-04-03T08:16:18;2.63;;;1.42;;
41799;SDS011;27468;47.460;19.034;2023-04-03T08:18:46;2.95;;;1.63;;
41799;SDS011;27468;47.460;19.034;2023-04-03T08:21:12;1.90;;;1.33;;
41799;SDS011;27468;47.460;19.034;2023-04-03T08:23:38;2.50;;;1.40;;
41799;SDS011;27468;47.460;19.034;2023-04-03T08:26:09;2.85;;;1.60;;
41799;SDS011;27468;47.460;19.034;2023-04-03T08:28:39;2.53;;;1.67;;
41799;SDS011;27468;47.460;19.034;2023-04-03T08:31:06;2.65;;;1.52;;
41799;SDS011;27468;47.460;19.034;2023-04-03T08:33:33;2.08;;;1.40;;
41799;SDS011;27468;47.460;19.034;2023-04-03T08:36:01;2.53;;;1.67;;
41799;SDS011;27468;47.460;19.034;2023-04-03T08:38:26;1.27;;;1.17;;
41799;SDS011;27468;47.460;19.034;2023-04-03T08:41:02;2.47;;;1.55;;
41799;SDS011;27468;47.460;19.034;2023-04-03T08:43:58;1.67;;;1.13;;
41799;SDS011;27468;47.460;19.034;2023-04-03T08:46:30;2.08;;;1.50;;
41799;SDS011;27468;47.460;19.034;2023-04-03T08:51:57;2.70;;;1.50;;
41799;SDS011;27468;47.460;19.034;2023-04-03T08:57:06;2.03;;;1.45;;
41799;SDS011;27468;47.460;19.034;2023-04-03T08:59:35;1.92;;;1.50;;
41799;SDS011;27468;47.460;19.034;2023-04-03T09:02:21;1.80;;;1.10;;
41799;SDS011;27468;47.460;19.034;2023-04-03T09:04:54;1.52;;;1.27;;
41799;SDS011;27468;47.460;19.034;2023-04-03T09:07:22;2.42;;;1.67;;
41799;SDS011;27468;47.460;19.034;2023-04-03T09:09:58;1.73;;;1.25;;
41799;SDS011;27468;47.460;19.034;2023-04-03T09:12:32;2.00;;;1.50;;
41799;SDS011;27468;47.460;19.034;2023-04-03T09:15:10;1.73;;;1.05;;
41799;SDS011;27468;47.460;19.034;2023-04-03T09:20:17;1.13;;;0.90;;
41799;SDS011;27468;47.460;19.034;2023-04-03T09:22:51;1.30;;;0.90;;
41799;SDS011;27468;47.460;19.034;2023-04-03T09:25:23;2.28;;;1.08;;
41799;SDS011;27468;47.460;19.034;2023-04-03T09:28:01;1.33;;;0.80;;
41799;SDS011;27468;47.460;19.034;2023-04-03T09:30:27;1.70;;;1.00;;
41799;SDS011;27468;47.460;19.034;2023-04-03T09:32:55;1.38;;;1.00;;
41799;SDS011;27468;47.460;19.034;2023-04-03T09:35:28;1.52;;;0.90;;
41799;SDS011;27468;47.460;19.034;2023-04-03T09:38:00;1.70;;;1.00;;
41799;SDS011;27468;47.460;19.034;2023-04-03T09:42:57;1.63;;;1.13;;
41799;SDS011;27468;47.460;19.034;2023-04-03T09:45:25;1.23;;;0.90;;
41799;SDS011;27468;47.460;19.034;2023-04-03T09:48:38;1.55;;;1.15;;
41799;SDS011;27468;47.460;19.034;2023-04-03T09:58:42;1.40;;;1.00;;
41799;SDS011;27468;47.460;19.034;2023-04-03T10:04:05;1.27;;;0.82;;
41799;SDS011;27468;47.460;19.034;2023-04-03T10:14:35;1.67;;;1.05;;
41799;SDS011;27468;47.460;19.034;2023-04-03T10:17:09;2.22;;;0.95;;
41799;SDS011;27468;47.460;19.034;2023-04-03T10:28:20;1.40;;;1.02;;
41799;SDS011;27468;47.460;19.034;2023-04-03T10:38:33;1.45;;;1.08;;
41799;SDS011;27468;47.460;19.034;2023-04-03T10:41:07;1.80;;;0.88;;
41799;SDS011;27468;47.460;19.034;2023-04-03T10:43:59;1.90;;;1.05;;
41799;SDS011;27468;47.460;19.034;2023-04-03T10:46:44;1.42;;;0.80;;
41799;SDS011;27468;47.460;19.034;2023-04-03T10:51:45;1.60;;;0.90;;
41799;SDS011;27468;47.460;19.034;2023-04-03T10:56:56;1.90;;;0.90;;
41799;SDS011;27468;47.460;19.034;2023-04-03T11:04:48;1.10;;;0.90;;
41799;SDS011;27468;47.460;19.034;2023-04-03T11:07:22;1.52;;;0.85;;
41799;SDS011;27468;47.460;19.034;2023-04-03T11:09:52;1.10;;;0.88;;
41799;SDS011;27468;47.460;19.034;2023-04-03T11:12:31;1.73;;;1.35;;
41799;SDS011;27468;47.460;19.034;2023-04-03T11:15:03;1.65;;;0.88;;
41799;SDS011;27468;47.460;19.034;2023-04-03T11:17:35;1.92;;;0.90;;
41799;SDS011;27468;47.460;19.034;2023-04-03T11:20:22;1.17;;;0.88;;
41799;SDS011;27468;47.460;19.034;2023-04-03T11:25:42;1.30;;;0.90;;
41799;SDS011;27468;47.460;19.034;2023-04-03T11:28:13;2.00;;;1.00;;
41799;SDS011;27468;47.460;19.034;2023-04-03T11:35:45;2.10;;;1.20;;
41799;SDS011;27468;47.460;19.034;2023-04-03T11:38:21;0.85;;;0.73;;
41799;SDS011;27468;47.460;19.034;2023-04-03T11:40:53;1.60;;;1.02;;
41799;SDS011;27468;47.460;19.034;2023-04-03T11:43:21;1.20;;;0.93;;
41799;SDS011;27468;47.460;19.034;2023-04-03T11:45:54;1.05;;;0.70;;
41799;SDS011;27468;47.460;19.034;2023-04-03T11:50:53;0.85;;;0.60;;
41799;SDS011;27468;47.460;19.034;2023-04-03T11:59:14;0.80;;;0.70;;
41799;SDS011;27468;47.460;19.034;2023-04-03T12:04:14;0.85;;;0.70;;
41799;SDS011;27468;47.460;19.034;2023-04-03T12:07:11;0.90;;;0.80;;
41799;SDS011;27468;47.460;19.034;2023-04-03T12:12:22;0.57;;;0.57;;
41799;SDS011;27468;47.460;19.034;2023-04-03T12:14:53;0.80;;;0.80;;
41799;SDS011;27468;47.460;19.034;2023-04-03T12:17:20;1.25;;;0.90;;
41799;SDS011;27468;47.460;19.034;2023-04-03T12:19:51;1.65;;;1.02;;
41799;SDS011;27468;47.460;19.034;2023-04-03T12:22:17;0.98;;;0.63;;
41799;SDS011;27468;47.460;19.034;2023-04-03T12:24:46;0.98;;;0.77;;
41799;SDS011;27468;47.460;19.034;2023-04-03T12:35:35;1.13;;;0.60;;
41799;SDS011;27468;47.460;19.034;2023-04-03T12:46:22;1.52;;;0.70;;
41799;SDS011;27468;47.460;19.034;2023-04-03T12:48:50;0.93;;;0.50;;
41799;SDS011;27468;47.460;19.034;2023-04-03T12:54:27;1.08;;;0.60;;
41799;SDS011;27468;47.460;19.034;2023-04-03T12:57:21;1.15;;;0.85;;
41799;SDS011;27468;47.460;19.034;2023-04-03T12:59:50;1.05;;;0.80;;
41799;SDS011;27468;47.460;19.034;2023-04-03T13:02:19;0.95;;;0.60;;
41799;SDS011;27468;47.460;19.034;2023-04-03T13:04:51;2.45;;;1.13;;
41799;SDS011;27468;47.460;19.034;2023-04-03T13:07:20;1.02;;;0.73;;
41799;SDS011;27468;47.460;19.034;2023-04-03T13:10:35;1.48;;;0.65;;
41799;SDS011;27468;47.460;19.034;2023-04-03T13:12:33;1.25;;;0.70;;
41799;SDS011;27468;47.460;19.034;2023-04-03T13:15:01;1.13;;;0.90;;
41799;SDS011;27468;47.460;19.034;2023-04-03T13:17:38;1.77;;;0.60;;
41799;SDS011;27468;47.460;19.034;2023-04-03T13:20:11;1.00;;;0.65;;
41799;SDS011;27468;47.460;19.034;2023-04-03T13:22:40;1.45;;;0.70;;
41799;SDS011;27468;47.460;19.034;2023-04-03T13:25:22;1.20;;;0.70;;
41799;SDS011;27468;47.460;19.034;2023-04-03T13:27:49;1.40;;;0.90;;
41799;SDS011;27468;47.460;19.034;2023-04-03T13:30:27;1.75;;;0.70;;
41799;SDS011;27468;47.460;19.034;2023-04-03T13:32:52;2.10;;;0.90;;
41799;SDS011;27468;47.460;19.034;2023-04-03T13:37:55;1.20;;;0.77;;
41799;SDS011;27468;47.460;19.034;2023-04-03T13:40:32;1.15;;;0.75;;
41799;SDS011;27468;47.460;19.034;2023-04-03T13:43:16;0.88;;;0.68;;
41799;SDS011;27468;47.460;19.034;2023-04-03T13:46:45;1.10;;;0.60;;
41799;SDS011;27468;47.460;19.034;2023-04-03T13:48:43;1.15;;;0.70;;
41799;SDS011;27468;47.460;19.034;2023-04-03T13:53:59;1.80;;;0.90;;
41799;SDS011;27468;47.460;19.034;2023-04-03T14:04:26;1.13;;;0.80;;
41799;SDS011;27468;47.460;19.034;2023-04-03T14:06:55;1.15;;;0.85;;
41799;SDS011;27468;47.460;19.034;2023-04-03T14:09:21;1.33;;;1.08;;
41799;SDS011;27468;47.460;19.034;2023-04-03T14:11:48;0.70;;;0.70;;
41799;SDS011;27468;47.460;19.034;2023-04-03T14:14:24;1.40;;;0.93;;
41799;SDS011;27468;47.460;19.034;2023-04-03T14:16:57;0.82;;;0.70;;
41799;SDS011;27468;47.460;19.034;2023-04-03T14:19:32;1.27;;;1.00;;
41799;SDS011;27468;47.460;19.034;2023-04-03T14:21:59;0.70;;;0.60;;
41799;SDS011;27468;47.460;19.034;2023-04-03T14:24:26;1.58;;;0.70;;
41799;SDS011;27468;47.460;19.034;2023-04-03T14:26:53;0.80;;;0.70;;
41799;SDS011;27468;47.460;19.034;2023-04-03T14:29:20;2.13;;;1.00;;
41799;SDS011;27468;47.460;19.034;2023-04-03T14:31:46;1.27;;;0.70;;
41799;SDS011;27468;47.460;19.034;2023-04-03T14:34:13;1.00;;;0.80;;
41799;SDS011;27468;47.460;19.034;2023-04-03T14:36:41;0.80;;;0.60;;
41799;SDS011;27468;47.460;19.034;2023-04-03T14:39:10;0.80;;;0.80;;
41799;SDS011;27468;47.460;19.034;2023-04-03T14:41:41;0.95;;;0.70;;
41799;SDS011;27468;47.460;19.034;2023-04-03T14:44:07;0.70;;;0.70;;
41799;SDS011;27468;47.460;19.034;2023-04-03T14:46:34;1.83;;;0.70;;
41799;SDS011;27468;47.460;19.034;2023-04-03T14:49:02;1.20;;;0.80;;
41799;SDS011;27468;47.460;19.034;2023-04-03T14:51:32;1.05;;;0.77;;
41799;SDS011;27468;47.460;19.034;2023-04-03T14:53:58;0.75;;;0.60;;
41799;SDS011;27468;47.460;19.034;2023-04-03T14:56:25;2.05;;;0.80;;
41799;SDS011;27468;47.460;19.034;2023-04-03T14:58:57;2.28;;;1.00;;
41799;SDS011;27468;47.460;19.034;2023-04-03T15:01:24;1.00;;;0.70;;
41799;SDS011;27468;47.460;19.034;2023-04-03T15:03:51;0.85;;;0.70;;
41799;SDS011;27468;47.460;19.034;2023-04-03T15:06:16;1.00;;;0.70;;
41799;SDS011;27468;47.460;19.034;2023-04-03T15:08:42;0.88;;;0.70;;
41799;SDS011;27468;47.460;19.034;2023-04-03T15:11:09;1.52;;;0.82;;
41799;SDS011;27468;47.460;19.034;2023-04-03T15:13:35;1.00;;;0.73;;
41799;SDS011;27468;47.460;19.034;2023-04-03T15:16:02;1.50;;;0.73;;
41799;SDS011;27468;47.460;19.034;2023-04-03T15:18:29;0.88;;;0.80;;
41799;SDS011;27468;47.460;19.034;2023-04-03T15:21:00;2.35;;;1.50;;
41799;SDS011;27468;47.460;19.034;2023-04-03T15:23:25;1.55;;;1.08;;
41799;SDS011;27468;47.460;19.034;2023-04-03T15:25:53;2.88;;;0.93;;
41799;SDS011;27468;47.460;19.034;2023-04-03T15:28:22;1.48;;;1.10;;
41799;SDS011;27468;47.460;19.034;2023-04-03T15:30:52;1.00;;;0.90;;
41799;SDS011;27468;47.460;19.034;2023-04-03T15:33:18;2.45;;;1.30;;
41799;SDS011;27468;47.460;19.034;2023-04-03T15:35:43;3.05;;;1.48;;
41799;SDS011;27468;47.460;19.034;2023-04-03T15:38:09;1.42;;;1.00;;
41799;SDS011;27468;47.460;19.034;2023-04-03T15:40:35;1.23;;;0.90;;
41799;SDS011;27468;47.460;19.034;2023-04-03T15:43:01;2.53;;;1.40;;
41799;SDS011;27468;47.460;19.034;2023-04-03T15:45:28;2.03;;;1.30;;
41799;SDS011;27468;47.460;19.034;2023-04-03T15:47:55;2.63;;;1.60;;
41799;SDS011;27468;47.460;19.034;2023-04-03T15:50:20;2.05;;;1.35;;
41799;SDS011;27468;47.460;19.034;2023-04-03T15:52:48;2.17;;;1.50;;
41799;SDS011;27468;47.460;19.034;2023-04-03T15:55:19;1.65;;;1.20;;
41799;SDS011;27468;47.460;19.034;2023-04-03T15:57:45;2.80;;;1.23;;
41799;SDS011;27468;47.460;19.034;2023-04-03T16:00:10;2.20;;;1.20;;
41799;SDS011;27468;47.460;19.034;2023-04-03T16:02:36;2.45;;;1.10;;
41799;SDS011;27468;47.460;19.034;2023-04-03T16:05:02;1.60;;;1.33;;
41799;SDS011;27468;47.460;19.034;2023-04-03T16:07:27;2.63;;;1.20;;
41799;SDS011;27468;47.460;19.034;2023-04-03T16:09:53;2.15;;;1.40;;
41799;SDS011;27468;47.460;19.034;2023-04-03T16:12:19;1.52;;;1.17;;
41799;SDS011;27468;47.460;19.034;2023-04-03T16:14:44;2.70;;;1.25;;
41799;SDS011;27468;47.460;19.034;2023-04-03T16:17:09;3.28;;;1.30;;
41799;SDS011;27468;47.460;19.034;2023-04-03T16:19:35;2.10;;;1.15;;
41799;SDS011;27468;47.460;19.034;2023-04-03T16:22:01;2.47;;;1.33;;
41799;SDS011;27468;47.460;19.034;2023-04-03T16:24:26;2.00;;;1.30;;
41799;SDS011;27468;47.460;19.034;2023-04-03T16:26:52;2.03;;;1.25;;
41799;SDS011;27468;47.460;19.034;2023-04-03T16:29:18;2.38;;;1.52;;
41799;SDS011;27468;47.460;19.034;2023-04-03T16:31:44;2.25;;;1.60;;
41799;SDS011;27468;47.460;19.034;2023-04-03T16:34:09;3.03;;;1.70;;
41799;SDS011;27468;47.460;19.034;2023-04-03T16:36:35;3.15;;;1.40;;
41799;SDS011;27468;47.460;19.034;2023-04-03T16:39:02;2.72;;;1.77;;
41799;SDS011;27468;47.460;19.034;2023-04-03T16:41:28;3.25;;;1.35;;
41799;SDS011;27468;47.460;19.034;2023-04-03T16:43:53;1.95;;;1.15;;